Time;durP1;ratioP1;P1;durP2;ratioP2;P2;SDS_P1;SDS_P2;PMS_P1;PMS_P2;Temp;Humidity;BMP_temperature;BMP_pressure;BME280_temperature;BME280_humidity;BME280_pressure;Samples;Min_cycle;Max_cycle;Signal;HPM_P1;HPM_P2
2023/06/01 00:00:24;;;;;;;3.03;2.73;;;25.80;42.40;;;;;;5001160;28;20442;-80
2023/06/01 00:02:54;;;;;;;3.50;2.80;;;25.80;42.50;;;;;;5002436;28;20439;-80
2023/06/01 00:05:22;;;;;;;2.73;2.53;;;25.80;42.50;;;;;;4999826;28;20443;-80
2023/06/01 00:07:50;;;;;;;3.17;2.90;;;25.70;42.60;;;;;;4996136;28;20524;-80
2023/06/01 00:10:19;;;;;;;3.30;3.00;;;25.70;42.50;;;;;;4992941;28;20453;-80
2023/06/01 00:12:47;;;;;;;3.33;3.00;;;25.70;42.60;;;;;;5001586;28;20412;-81
2023/06/01 00:15:15;;;;;;;2.97;2.67;;;25.70;42.60;;;;;;5008433;28;20439;-80
2023/06/01 00:17:43;;;;;;;3.30;3.00;;;25.70;42.60;;;;;;5006277;28;20472;-81
2023/06/01 00:20:13;;;;;;;3.13;2.80;;;25.70;42.70;;;;;;5005199;28;20408;-80
2023/06/01 00:22:42;;;;;;;3.03;2.83;;;25.60;42.60;;;;;;5007860;28;20958;-80
2023/06/01 00:25:11;;;;;;;2.83;2.63;;;25.60;42.60;;;;;;5007235;28;20475;-81
2023/06/01 00:27:45;;;;;;;3.40;3.10;;;25.60;42.70;;;;;;5003600;28;20453;-81
2023/06/01 00:30:14;;;;;;;2.80;2.53;;;25.60;42.70;;;;;;4990431;28;20444;-80
2023/06/01 00:32:42;;;;;;;3.17;2.87;;;25.50;42.70;;;;;;5006429;28;20420;-80
2023/06/01 00:35:12;;;;;;;3.13;2.80;;;25.50;42.70;;;;;;5000427;28;20447;-81
2023/06/01 00:37:40;;;;;;;3.40;2.70;;;25.50;42.70;;;;;;4999700;28;20484;-81
2023/06/01 00:40:09;;;;;;;3.40;2.90;;;25.50;42.80;;;;;;4999824;28;20428;-80
2023/06/01 00:42:37;;;;;;;3.03;2.83;;;25.50;42.80;;;;;;5004133;28;20467;-80
2023/06/01 00:45:06;;;;;;;3.27;3.07;;;25.40;42.80;;;;;;5003722;28;20433;-81
2023/06/01 00:47:38;;;;;;;3.40;3.10;;;25.40;42.80;;;;;;5005305;28;20480;-81
2023/06/01 00:50:06;;;;;;;3.30;3.00;;;25.40;42.80;;;;;;5003872;28;20420;-80
2023/06/01 00:52:36;;;;;;;2.87;2.77;;;25.40;42.80;;;;;;5000888;28;20490;-80
2023/06/01 00:55:05;;;;;;;4.47;2.90;;;25.40;42.90;;;;;;5000758;28;20506;-80
2023/06/01 00:57:33;;;;;;;4.37;2.80;;;25.40;42.90;;;;;;5002465;28;20548;-81
2023/06/01 01:00:08;;;;;;;3.60;3.03;;;25.30;42.80;;;;;;5005487;28;20416;-80
2023/06/01 01:02:38;;;;;;;2.90;2.73;;;25.30;42.90;;;;;;5004478;28;20468;-81
2023/06/01 01:05:09;;;;;;;4.83;3.03;;;25.30;42.90;;;;;;4994221;28;20459;-81
2023/06/01 01:07:43;;;;;;;3.13;2.70;;;25.30;42.80;;;;;;5001747;28;20449;-80
2023/06/01 01:10:15;;;;;;;3.53;3.10;;;25.30;42.90;;;;;;4996586;28;20499;-79
2023/06/01 01:12:46;;;;;;;4.73;3.33;;;25.20;42.90;;;;;;4997763;28;20456;-82
2023/06/01 01:15:17;;;;;;;3.17;2.90;;;25.20;42.90;;;;;;5000006;28;20524;-81
2023/06/01 01:17:46;;;;;;;3.10;2.80;;;25.20;42.90;;;;;;5004157;28;20511;-80
2023/06/01 01:20:15;;;;;;;3.10;2.90;;;25.20;43.00;;;;;;5004339;28;20446;-80
2023/06/01 01:23:11;;;;;;;4.00;3.03;;;25.20;42.90;;;;;;5000786;28;20445;-80
2023/06/01 01:25:53;;;;;;;4.63;4.23;;;25.20;42.90;;;;;;4999923;28;20464;-81
2023/06/01 01:28:33;;;;;;;5.03;4.57;;;25.10;42.90;;;;;;5001245;28;20476;-80
2023/06/01 01:31:01;;;;;;;4.73;4.00;;;25.10;43.10;;;;;;5001892;28;20424;-82
2023/06/01 01:33:29;;;;;;;3.60;3.30;;;25.10;43.00;;;;;;5006836;28;20441;-81
2023/06/01 01:35:57;;;;;;;5.77;5.23;;;25.10;43.20;;;;;;5005670;28;20492;-81
2023/06/01 01:38:25;;;;;;;4.70;4.30;;;25.10;43.20;;;;;;5004073;28;20456;-81
2023/06/01 01:40:54;;;;;;;7.40;4.80;;;25.00;43.20;;;;;;4988180;28;20517;-81
2023/06/01 01:43:22;;;;;;;5.07;4.57;;;25.00;43.20;;;;;;5004428;28;20431;-80
2023/06/01 01:45:54;;;;;;;6.90;5.70;;;25.00;43.10;;;;;;5004572;28;20436;-80
2023/06/01 01:48:24;;;;;;;5.83;5.17;;;25.00;43.10;;;;;;4998763;28;20500;-81
2023/06/01 01:50:54;;;;;;;5.17;4.67;;;25.00;43.20;;;;;;5001747;28;20435;-80
2023/06/01 01:53:23;;;;;;;5.17;4.67;;;25.00;43.20;;;;;;5001028;28;20511;-81
2023/06/01 01:55:51;;;;;;;6.53;4.60;;;24.90;43.20;;;;;;5002776;28;20585;-80
2023/06/01 01:58:19;;;;;;;5.83;4.50;;;24.90;43.00;;;;;;5000096;28;20409;-80
2023/06/01 02:00:47;;;;;;;5.07;4.37;;;24.90;43.20;;;;;;5000639;28;20439;-80
2023/06/01 02:03:17;;;;;;;6.77;4.90;;;24.90;43.20;;;;;;5000793;28;20412;-80
2023/06/01 02:05:45;;;;;;;5.90;4.60;;;24.80;43.20;;;;;;5001100;28;20424;-80
2023/06/01 02:08:13;;;;;;;5.20;4.70;;;24.80;43.40;;;;;;5002410;28;20435;-80
2023/06/01 02:10:41;;;;;;;5.60;4.63;;;24.80;43.20;;;;;;4999900;28;20477;-80
2023/06/01 02:13:09;;;;;;;8.43;5.20;;;24.80;43.30;;;;;;4995397;28;20468;-80
2023/06/01 02:15:38;;;;;;;5.83;4.47;;;24.80;43.30;;;;;;4995227;28;20439;-81
2023/06/01 02:18:07;;;;;;;6.43;4.33;;;24.80;43.30;;;;;;4996814;28;20445;-80
2023/06/01 02:20:36;;;;;;;5.73;4.10;;;24.70;43.20;;;;;;4990786;28;20404;-80
2023/06/01 02:23:05;;;;;;;5.20;4.27;;;24.80;43.40;;;;;;4994536;28;20419;-80
2023/06/01 02:25:33;;;;;;;4.87;4.47;;;24.70;43.30;;;;;;4995574;28;20496;-80
2023/06/01 02:28:01;;;;;;;4.87;4.43;;;24.80;43.30;;;;;;4996853;28;20420;-80
2023/06/01 02:30:30;;;;;;;4.80;4.13;;;24.70;43.40;;;;;;4987201;28;20444;-79
2023/06/01 02:32:58;;;;;;;5.80;4.80;;;24.70;43.30;;;;;;4994957;28;20419;-80
2023/06/01 02:35:26;;;;;;;5.20;4.10;;;24.70;43.30;;;;;;4994245;28;20480;-80
2023/06/01 02:37:56;;;;;;;4.83;4.40;;;24.70;43.40;;;;;;4995714;28;20469;-79
2023/06/01 02:40:24;;;;;;;6.47;4.10;;;24.70;43.40;;;;;;4993802;28;20872;-80
2023/06/01 02:42:52;;;;;;;4.87;4.37;;;24.60;43.40;;;;;;4984472;28;20462;-80
2023/06/01 02:45:21;;;;;;;7.20;4.70;;;24.60;43.30;;;;;;4994147;28;20500;-79
2023/06/01 02:47:49;;;;;;;4.37;3.97;;;24.60;43.50;;;;;;4989640;28;20473;-80
2023/06/01 02:50:17;;;;;;;6.27;4.40;;;24.60;43.30;;;;;;4992807;28;20471;-80
2023/06/01 02:52:46;;;;;;;4.77;3.90;;;24.60;43.40;;;;;;4994287;28;20445;-79
2023/06/01 02:55:16;;;;;;;5.33;4.40;;;24.60;43.40;;;;;;4997306;28;20478;-80
2023/06/01 02:57:44;;;;;;;4.43;3.77;;;24.60;43.40;;;;;;5003188;28;20470;-80
2023/06/01 03:00:17;;;;;;;4.60;3.80;;;24.50;43.40;;;;;;4996567;28;20432;-81
2023/06/01 03:02:45;;;;;;;4.17;3.87;;;24.50;43.40;;;;;;5003363;28;21017;-81
2023/06/01 03:05:14;;;;;;;5.17;3.70;;;24.50;43.40;;;;;;5002419;28;20556;-81
2023/06/01 03:07:42;;;;;;;5.63;4.10;;;24.50;43.40;;;;;;5003110;28;20458;-82
2023/06/01 03:10:12;;;;;;;4.50;4.07;;;24.50;43.50;;;;;;5001562;28;20501;-81
2023/06/01 03:12:41;;;;;;;4.30;3.90;;;24.50;43.50;;;;;;4995230;28;20449;-81
2023/06/01 03:15:09;;;;;;;4.10;3.70;;;24.50;43.40;;;;;;5002394;28;20495;-81
2023/06/01 03:17:37;;;;;;;4.23;3.77;;;24.40;43.50;;;;;;4994877;28;20449;-82
2023/06/01 03:20:14;;;;;;;3.73;3.47;;;24.40;43.50;;;;;;5000230;28;20500;-83
2023/06/01 03:22:43;;;;;;;4.03;3.57;;;24.40;43.60;;;;;;4997005;28;20491;-82
2023/06/01 03:25:12;;;;;;;4.20;3.80;;;24.40;43.50;;;;;;5004581;28;20469;-81
2023/06/01 03:27:42;;;;;;;4.03;3.63;;;24.40;43.50;;;;;;5002710;28;20445;-81
2023/06/01 03:30:11;;;;;;;4.13;3.80;;;24.40;43.60;;;;;;4996905;28;20535;-81
2023/06/01 03:32:40;;;;;;;4.07;3.77;;;24.30;43.50;;;;;;5000188;28;20445;-81
2023/06/01 03:35:09;;;;;;;3.73;3.40;;;24.30;43.30;;;;;;4999301;28;20473;-82
2023/06/01 03:37:39;;;;;;;4.10;3.63;;;24.30;43.50;;;;;;5002817;28;20445;-81
2023/06/01 03:40:10;;;;;;;3.50;3.20;;;24.30;43.50;;;;;;4996246;28;20519;-80
2023/06/01 03:42:38;;;;;;;6.70;3.60;;;24.30;43.40;;;;;;4989431;28;20525;-81
2023/06/01 03:45:09;;;;;;;3.57;3.30;;;24.30;43.60;;;;;;4987969;28;20476;-81
2023/06/01 03:47:37;;;;;;;3.90;3.30;;;24.30;43.70;;;;;;4991872;28;20503;-81
2023/06/01 03:50:07;;;;;;;3.30;3.10;;;24.30;43.60;;;;;;4998145;28;20477;-81
2023/06/01 03:52:36;;;;;;;3.90;3.60;;;24.30;43.60;;;;;;4997098;28;20433;-81
2023/06/01 03:55:08;;;;;;;3.80;3.40;;;24.30;43.60;;;;;;5001551;28;20473;-81
2023/06/01 03:57:38;;;;;;;4.67;4.07;;;24.20;43.60;;;;;;4998904;28;20441;-81
2023/06/01 04:00:18;;;;;;;3.43;3.13;;;24.20;43.60;;;;;;4998529;28;20488;-81
2023/06/01 04:02:52;;;;;;;6.83;3.60;;;24.20;43.80;;;;;;5001046;28;20523;-81
2023/06/01 04:05:20;;;;;;;3.70;3.33;;;24.20;43.70;;;;;;4997103;28;20461;-81
2023/06/01 04:07:51;;;;;;;3.60;3.30;;;24.20;43.70;;;;;;4994840;28;20449;-81
2023/06/01 04:10:19;;;;;;;3.53;3.17;;;24.20;43.70;;;;;;4994469;28;20465;-81
2023/06/01 04:12:49;;;;;;;3.40;3.10;;;24.20;43.70;;;;;;4998701;28;20427;-81
2023/06/01 04:15:19;;;;;;;4.50;3.77;;;24.20;43.70;;;;;;4995725;28;20488;-81
2023/06/01 04:17:48;;;;;;;3.70;3.50;;;24.10;43.60;;;;;;5000857;28;20536;-81
2023/06/01 04:20:16;;;;;;;3.60;3.30;;;24.10;43.70;;;;;;5003593;28;20449;-81
2023/06/01 04:22:45;;;;;;;3.30;3.10;;;24.10;43.70;;;;;;4996322;28;20445;-81
2023/06/01 04:25:16;;;;;;;3.10;2.90;;;24.10;43.60;;;;;;5003237;28;20556;-81
2023/06/01 04:27:45;;;;;;;3.37;3.13;;;24.10;43.60;;;;;;5006571;28;20454;-81
2023/06/01 04:30:15;;;;;;;3.30;3.10;;;24.10;43.60;;;;;;5004933;28;20492;-81
2023/06/01 04:32:47;;;;;;;3.07;2.87;;;24.10;43.60;;;;;;5004739;28;20532;-81
2023/06/01 04:35:16;;;;;;;3.13;2.90;;;24.10;43.50;;;;;;4999309;28;20473;-82
2023/06/01 04:37:45;;;;;;;3.33;3.10;;;24.10;43.60;;;;;;5003502;28;20521;-81
2023/06/01 04:40:13;;;;;;;3.57;3.23;;;24.10;43.60;;;;;;5002596;28;20425;-81
2023/06/01 04:42:45;;;;;;;3.30;3.10;;;24.10;43.70;;;;;;4996396;28;20448;-83
2023/06/01 04:45:15;;;;;;;3.00;2.80;;;24.00;43.60;;;;;;5002966;28;20483;-81
2023/06/01 04:47:47;;;;;;;3.27;3.03;;;24.00;43.70;;;;;;4998283;28;20508;-81
2023/06/01 04:50:16;;;;;;;3.87;2.80;;;24.00;43.70;;;;;;4998206;28;20473;-81
2023/06/01 04:52:45;;;;;;;4.33;3.20;;;24.10;43.70;;;;;;4991584;28;20481;-80
2023/06/01 04:55:14;;;;;;;3.17;2.90;;;24.00;43.60;;;;;;4996181;28;20457;-80
2023/06/01 04:57:43;;;;;;;2.90;2.67;;;24.00;43.70;;;;;;4991537;28;20952;-81
2023/06/01 05:00:13;;;;;;;4.97;2.93;;;24.00;43.80;;;;;;4995671;28;20446;-81
2023/06/01 05:02:42;;;;;;;3.23;3.03;;;24.00;43.70;;;;;;4997640;28;20449;-81
2023/06/01 05:05:12;;;;;;;3.53;3.07;;;24.00;43.60;;;;;;4996656;28;20480;-81
2023/06/01 05:07:41;;;;;;;3.93;3.17;;;24.00;43.60;;;;;;4996667;28;20496;-81
2023/06/01 05:10:10;;;;;;;3.27;2.97;;;24.00;43.70;;;;;;4995771;28;20433;-81
2023/06/01 05:12:38;;;;;;;3.20;3.00;;;24.00;43.70;;;;;;4995784;28;20441;-81
2023/06/01 05:15:10;;;;;;;3.03;2.77;;;24.00;43.80;;;;;;4989969;28;20480;-81
2023/06/01 05:17:39;;;;;;;3.17;2.90;;;24.00;43.70;;;;;;4996878;28;20441;-81
2023/06/01 05:20:08;;;;;;;2.87;2.67;;;23.90;43.60;;;;;;4995459;28;20424;-81
2023/06/01 05:22:42;;;;;;;3.33;3.07;;;23.90;43.60;;;;;;4995472;28;20452;-81
2023/06/01 05:25:10;;;;;;;3.17;2.97;;;24.00;43.80;;;;;;4994653;28;20436;-81
2023/06/01 05:27:39;;;;;;;3.03;2.80;;;24.00;43.70;;;;;;4992721;28;20446;-81
2023/06/01 05:30:08;;;;;;;3.40;3.10;;;24.00;43.60;;;;;;4995985;28;20416;-81
2023/06/01 05:32:36;;;;;;;3.30;3.00;;;24.00;43.80;;;;;;4995092;28;20541;-81
2023/06/01 05:35:05;;;;;;;2.80;2.60;;;24.00;43.70;;;;;;4991279;28;20507;-81
2023/06/01 05:37:34;;;;;;;3.10;2.90;;;24.00;43.60;;;;;;4998957;28;20488;-81
2023/06/01 05:40:07;;;;;;;3.03;2.73;;;24.00;43.60;;;;;;5000937;28;20449;-79
2023/06/01 05:42:35;;;;;;;2.80;2.60;;;24.00;43.60;;;;;;5002756;28;20435;-79
2023/06/01 05:45:04;;;;;;;3.30;2.90;;;24.00;43.60;;;;;;4999653;28;20458;-80
2023/06/01 05:47:32;;;;;;;2.87;2.67;;;23.90;43.60;;;;;;4994665;28;20499;-80
2023/06/01 05:50:00;;;;;;;3.33;3.00;;;24.00;43.70;;;;;;4995949;28;20437;-80
2023/06/01 05:52:28;;;;;;;3.40;3.10;;;24.00;43.60;;;;;;4987720;28;20468;-80
2023/06/01 05:54:56;;;;;;;3.13;2.70;;;23.90;43.60;;;;;;4996311;28;20523;-80
2023/06/01 05:57:26;;;;;;;3.00;2.63;;;23.90;43.60;;;;;;4989545;28;20452;-80
2023/06/01 05:59:54;;;;;;;3.23;2.93;;;24.00;43.70;;;;;;4993323;28;20434;-80
2023/06/01 06:02:23;;;;;;;3.07;2.87;;;23.90;43.70;;;;;;4992953;28;20449;-80
2023/06/01 06:04:51;;;;;;;2.97;2.77;;;24.00;43.60;;;;;;4993702;28;20517;-80
2023/06/01 06:07:19;;;;;;;5.80;3.07;;;24.00;43.80;;;;;;4993506;28;20532;-81
2023/06/01 06:09:47;;;;;;;4.30;2.63;;;24.00;43.60;;;;;;4993547;28;20500;-80
2023/06/01 06:12:15;;;;;;;5.10;2.90;;;24.00;43.70;;;;;;4991089;28;20516;-80
2023/06/01 06:14:45;;;;;;;3.80;2.97;;;24.00;43.70;;;;;;4987375;28;20469;-80
2023/06/01 06:17:13;;;;;;;2.97;2.77;;;24.00;43.70;;;;;;4992489;28;20537;-80
2023/06/01 06:19:43;;;;;;;2.83;2.67;;;24.10;43.70;;;;;;4994432;28;20488;-81
2023/06/01 06:22:11;;;;;;;2.83;2.70;;;24.10;43.70;;;;;;4993284;28;20441;-80
2023/06/01 06:24:39;;;;;;;3.00;2.80;;;24.10;43.60;;;;;;4987455;28;20458;-80
2023/06/01 06:27:07;;;;;;;3.03;2.83;;;24.10;43.60;;;;;;4995307;28;20424;-80
2023/06/01 06:29:35;;;;;;;3.47;2.57;;;24.10;43.60;;;;;;4991494;28;20452;-80
2023/06/01 06:32:06;;;;;;;3.40;3.10;;;24.10;43.50;;;;;;4994827;28;20473;-80
2023/06/01 06:34:35;;;;;;;2.70;2.50;;;24.10;43.60;;;;;;4993638;28;20457;-80
2023/06/01 06:37:05;;;;;;;2.83;2.63;;;24.20;43.50;;;;;;4995234;28;20509;-81
2023/06/01 06:39:33;;;;;;;2.63;2.43;;;24.10;43.50;;;;;;4990510;28;20488;-80
2023/06/01 06:42:02;;;;;;;2.70;2.50;;;24.10;43.40;;;;;;4979183;28;20452;-80
2023/06/01 06:44:30;;;;;;;4.50;2.57;;;24.10;43.40;;;;;;4992698;28;20449;-81
2023/06/01 06:46:59;;;;;;;3.20;2.90;;;24.10;43.50;;;;;;4994431;28;20507;-79
2023/06/01 06:49:31;;;;;;;2.67;2.50;;;24.10;43.50;;;;;;4996182;28;20444;-80
2023/06/01 06:51:59;;;;;;;2.80;2.60;;;24.10;43.40;;;;;;4996492;28;20516;-80
2023/06/01 06:54:27;;;;;;;2.73;2.53;;;24.10;43.80;;;;;;4991380;28;20534;-80
2023/06/01 06:56:55;;;;;;;2.70;2.50;;;24.10;43.50;;;;;;4989363;28;20488;-79
2023/06/01 06:59:23;;;;;;;3.33;2.97;;;24.10;43.50;;;;;;4996721;28;20457;-81
2023/06/01 07:01:51;;;;;;;3.13;2.93;;;24.10;43.40;;;;;;4992516;28;20472;-82
2023/06/01 07:04:20;;;;;;;2.40;2.30;;;24.10;43.50;;;;;;4997229;28;20457;-81
2023/06/01 07:06:50;;;;;;;2.40;2.20;;;24.10;43.60;;;;;;4999196;28;20455;-82
2023/06/01 07:09:18;;;;;;;2.60;2.40;;;24.10;43.50;;;;;;4989337;28;20421;-82
2023/06/01 07:11:47;;;;;;;2.23;2.03;;;24.10;43.60;;;;;;4993012;28;20470;-82
2023/06/01 07:14:15;;;;;;;2.77;2.57;;;24.00;43.50;;;;;;4996781;28;20441;-82
2023/06/01 07:16:43;;;;;;;4.47;2.47;;;24.10;43.80;;;;;;4990190;28;20476;-82
2023/06/01 07:19:12;;;;;;;2.37;2.17;;;24.10;43.60;;;;;;4997134;28;20452;-82
2023/06/01 07:21:40;;;;;;;2.30;2.10;;;24.10;43.60;;;;;;4995491;28;20449;-81
2023/06/01 07:24:10;;;;;;;2.20;2.10;;;24.20;43.40;;;;;;4996572;28;20481;-82
2023/06/01 07:26:38;;;;;;;2.50;2.30;;;24.20;43.40;;;;;;5004758;28;20476;-82
2023/06/01 07:29:07;;;;;;;2.33;2.13;;;24.20;43.40;;;;;;5002401;28;20445;-82
2023/06/01 07:31:35;;;;;;;2.17;2.07;;;24.20;43.40;;;;;;4994635;28;20458;-81
2023/06/01 07:34:04;;;;;;;2.70;2.30;;;24.30;43.40;;;;;;5000388;28;20469;-80
2023/06/01 07:36:36;;;;;;;2.40;2.30;;;24.20;43.30;;;;;;5006476;28;20427;-80
2023/06/01 07:39:08;;;;;;;2.07;1.97;;;24.30;43.50;;;;;;5002040;28;20453;-81
2023/06/01 07:41:39;;;;;;;2.00;1.90;;;24.30;43.30;;;;;;5009353;28;20444;-80
2023/06/01 07:44:07;;;;;;;2.63;2.43;;;24.30;43.80;;;;;;5006995;28;20441;-81
2023/06/01 07:46:36;;;;;;;2.50;1.97;;;24.30;43.20;;;;;;5006084;28;20443;-81
2023/06/01 07:49:04;;;;;;;2.10;2.00;;;24.30;43.30;;;;;;5007631;28;20445;-81
2023/06/01 07:51:32;;;;;;;3.30;2.50;;;24.30;43.30;;;;;;4997953;28;20516;-82
2023/06/01 07:54:01;;;;;;;2.20;2.10;;;24.30;43.20;;;;;;5006182;28;20476;-80
2023/06/01 07:56:31;;;;;;;2.10;1.90;;;24.30;43.30;;;;;;5004431;28;20491;-81
2023/06/01 07:59:00;;;;;;;2.20;2.10;;;24.30;43.30;;;;;;5005918;28;20525;-80
2023/06/01 08:01:29;;;;;;;2.60;2.40;;;24.30;43.20;;;;;;5005362;28;20445;-81
2023/06/01 08:03:58;;;;;;;3.17;2.37;;;24.40;43.30;;;;;;4996510;28;20452;-79
2023/06/01 08:06:26;;;;;;;2.07;1.97;;;24.40;43.20;;;;;;5007776;28;20460;-80
2023/06/01 08:08:57;;;;;;;2.77;2.57;;;24.40;43.20;;;;;;5008719;28;20441;-80
2023/06/01 08:11:26;;;;;;;2.23;2.13;;;24.40;43.20;;;;;;4993498;28;20497;-80
2023/06/01 08:13:56;;;;;;;2.03;1.93;;;24.30;43.20;;;;;;5008586;28;20473;-80
2023/06/01 08:16:26;;;;;;;2.13;2.03;;;24.30;43.30;;;;;;5007048;28;20465;-80
2023/06/01 08:18:56;;;;;;;2.30;2.10;;;24.30;43.20;;;;;;5008793;28;20547;-82
2023/06/01 08:21:25;;;;;;;2.03;1.93;;;24.30;43.20;;;;;;5003348;28;20450;-82
2023/06/01 08:23:54;;;;;;;2.50;2.30;;;24.30;43.40;;;;;;5009956;28;20449;-80
2023/06/01 08:26:22;;;;;;;2.70;2.13;;;24.30;43.30;;;;;;5006283;28;20459;-80
2023/06/01 08:28:52;;;;;;;3.23;2.70;;;24.30;43.50;;;;;;5005613;28;20445;-81
2023/06/01 08:31:21;;;;;;;2.13;1.93;;;24.30;43.10;;;;;;5003302;28;20449;-80
2023/06/01 08:33:51;;;;;;;2.07;1.97;;;24.30;43.40;;;;;;5002745;28;20518;-80
2023/06/01 08:36:19;;;;;;;2.03;1.93;;;24.30;43.10;;;;;;5008560;28;20519;-80
2023/06/01 08:38:50;;;;;;;2.20;2.10;;;24.40;43.20;;;;;;4999150;28;20420;-80
2023/06/01 08:41:25;;;;;;;2.60;2.40;;;24.40;43.20;;;;;;4997288;28;20459;-80
2023/06/01 08:43:55;;;;;;;2.30;2.10;;;24.30;43.20;;;;;;4998472;28;20442;-80
2023/06/01 08:46:23;;;;;;;2.30;2.10;;;24.30;43.20;;;;;;4994524;28;20461;-81
2023/06/01 08:48:54;;;;;;;2.00;1.90;;;24.30;43.30;;;;;;4999391;28;20441;-79
2023/06/01 08:51:23;;;;;;;2.63;2.17;;;24.30;43.30;;;;;;5003627;28;20449;-79
2023/06/01 08:53:51;;;;;;;2.37;2.27;;;24.30;43.30;;;;;;5004624;28;20465;-79
2023/06/01 08:56:21;;;;;;;2.70;2.50;;;24.40;43.40;;;;;;4991939;28;20537;-79
2023/06/01 08:58:50;;;;;;;2.30;2.10;;;24.40;43.30;;;;;;4998865;28;20474;-78
2023/06/01 09:01:20;;;;;;;2.30;2.10;;;24.50;43.30;;;;;;4999288;28;20449;-80
2023/06/01 09:03:50;;;;;;;1.97;1.80;;;24.40;43.10;;;;;;4999381;28;20441;-79
2023/06/01 09:06:19;;;;;;;2.70;2.37;;;24.50;43.30;;;;;;4999019;28;20489;-79
2023/06/01 09:08:47;;;;;;;2.47;2.27;;;24.50;43.20;;;;;;4996722;28;20439;-78
2023/06/01 09:11:15;;;;;;;2.40;2.13;;;24.60;43.40;;;;;;4990577;28;20486;-79
2023/06/01 09:13:43;;;;;;;1.90;1.80;;;24.70;43.00;;;;;;4986294;28;20484;-79
2023/06/01 09:16:11;;;;;;;2.17;2.07;;;24.70;43.00;;;;;;4998590;28;20493;-78
2023/06/01 09:18:51;;;;;;;3.87;2.00;;;24.70;42.90;;;;;;4993149;28;20487;-79
2023/06/01 09:21:21;;;;;;;2.30;2.20;;;24.70;42.80;;;;;;5001054;28;20441;-79
2023/06/01 09:23:49;;;;;;;2.27;2.07;;;24.80;43.10;;;;;;4995158;28;20452;-79
2023/06/01 09:26:18;;;;;;;2.23;2.10;;;24.80;42.70;;;;;;5004604;28;20499;-79
2023/06/01 09:28:56;;;;;;;2.40;2.20;;;24.80;42.70;;;;;;5005556;28;20469;-79
2023/06/01 09:31:44;;;;;;;2.60;2.40;;;24.80;42.80;;;;;;5002628;28;20449;-79
2023/06/01 09:34:15;;;;;;;2.67;2.10;;;24.80;43.00;;;;;;5004751;28;20493;-79
2023/06/01 09:36:45;;;;;;;1.93;1.83;;;24.90;42.70;;;;;;4991302;28;20441;-79
2023/06/01 09:39:13;;;;;;;2.00;1.90;;;24.90;42.70;;;;;;5002544;28;20441;-79
2023/06/01 09:41:48;;;;;;;1.90;1.80;;;24.90;42.50;;;;;;4999158;28;20453;-81
2023/06/01 09:44:24;;;;;;;2.27;2.17;;;24.90;42.60;;;;;;4996564;28;20465;-78
2023/06/01 09:46:53;;;;;;;1.93;1.73;;;25.00;42.70;;;;;;4999608;28;20453;-79
2023/06/01 09:49:24;;;;;;;2.20;2.10;;;25.00;42.60;;;;;;5001205;28;20437;-81
2023/06/01 09:51:54;;;;;;;3.53;2.10;;;25.00;42.60;;;;;;4996649;28;21000;-81
2023/06/01 09:54:24;;;;;;;2.23;1.87;;;25.00;42.40;;;;;;4999095;28;20508;-79
2023/06/01 09:56:52;;;;;;;2.13;1.90;;;25.00;42.50;;;;;;5001484;28;20408;-79
2023/06/01 09:59:41;;;;;;;1.90;1.80;;;25.10;42.60;;;;;;4990525;28;20454;-79
2023/06/01 10:02:13;;;;;;;2.00;1.90;;;25.20;42.40;;;;;;5003630;28;20427;-79
2023/06/01 10:04:42;;;;;;;2.40;2.30;;;25.20;42.40;;;;;;5004381;28;20436;-79
2023/06/01 10:07:12;;;;;;;3.10;1.90;;;25.20;42.30;;;;;;5005936;28;20484;-79
2023/06/01 10:09:41;;;;;;;2.00;1.90;;;25.20;42.10;;;;;;5001597;28;20456;-79
2023/06/01 10:12:09;;;;;;;2.10;1.83;;;25.20;42.80;;;;;;4994987;28;20440;-79
2023/06/01 10:14:37;;;;;;;2.53;2.10;;;25.30;42.30;;;;;;5001226;28;20451;-79
2023/06/01 10:17:06;;;;;;;3.17;1.70;;;25.30;42.10;;;;;;5000469;28;20469;-79
2023/06/01 10:19:34;;;;;;;1.93;1.70;;;25.30;42.00;;;;;;5006428;28;20423;-79
2023/06/01 10:22:03;;;;;;;2.20;2.10;;;25.30;42.30;;;;;;5006006;28;20424;-80
2023/06/01 10:24:33;;;;;;;2.67;1.80;;;25.30;42.10;;;;;;5005036;28;20450;-79
2023/06/01 10:27:05;;;;;;;2.10;1.90;;;25.40;42.20;;;;;;5005542;28;20473;-79
2023/06/01 10:29:33;;;;;;;2.00;1.90;;;25.40;42.20;;;;;;5000231;28;20500;-79
2023/06/01 10:32:01;;;;;;;1.80;1.70;;;25.40;42.10;;;;;;5005804;28;20432;-80
2023/06/01 10:34:39;;;;;;;2.20;2.00;;;25.50;42.10;;;;;;5004158;28;21044;-79
2023/06/01 10:37:17;;;;;;;1.90;1.80;;;25.50;42.00;;;;;;5005739;28;20448;-79
2023/06/01 10:39:46;;;;;;;2.20;2.00;;;25.60;41.90;;;;;;5004706;28;20475;-79
2023/06/01 10:42:40;;;;;;;2.83;1.87;;;25.60;41.80;;;;;;5004207;28;20481;-78
2023/06/01 10:45:09;;;;;;;1.77;1.47;;;25.70;41.90;;;;;;5004365;28;20459;-81
2023/06/01 10:47:48;;;;;;;2.07;1.90;;;25.80;41.70;;;;;;5000659;28;20472;-80
2023/06/01 10:50:18;;;;;;;2.97;1.93;;;25.90;41.50;;;;;;5004664;28;20452;-80
2023/06/01 10:52:46;;;;;;;1.97;1.87;;;26.00;41.60;;;;;;4997457;28;20452;-80
2023/06/01 10:55:24;;;;;;;1.93;1.83;;;26.00;41.40;;;;;;5004554;28;20500;-80
2023/06/01 10:58:12;;;;;;;2.20;1.73;;;26.00;41.30;;;;;;4997314;28;20411;-80
2023/06/01 11:00:40;;;;;;;2.00;1.90;;;26.00;41.30;;;;;;5005530;28;20464;-79
2023/06/01 11:03:08;;;;;;;1.90;1.80;;;26.00;41.30;;;;;;5005766;28;20412;-79
2023/06/01 11:05:38;;;;;;;2.80;1.97;;;26.00;41.50;;;;;;5004328;28;20446;-79
2023/06/01 11:08:07;;;;;;;2.23;2.13;;;26.00;41.50;;;;;;5004598;28;20415;-80
2023/06/01 11:10:57;;;;;;;4.03;1.70;;;25.90;41.40;;;;;;5004631;28;20431;-80
2023/06/01 11:13:27;;;;;;;2.37;2.23;;;26.00;41.60;;;;;;5005742;28;20430;-80
2023/06/01 11:16:32;;;;;;;2.30;2.17;;;26.00;41.50;;;;;;5006018;28;20469;-79
2023/06/01 11:19:02;;;;;;;2.47;2.30;;;26.00;41.40;;;;;;5002928;28;20473;-79
2023/06/01 11:21:33;;;;;;;2.63;2.43;;;26.10;41.40;;;;;;4995412;28;20453;-81
2023/06/01 11:24:02;;;;;;;2.90;2.70;;;26.10;42.00;;;;;;5009441;28;20469;-80
2023/06/01 11:26:33;;;;;;;2.87;2.20;;;26.10;41.30;;;;;;5001498;28;20498;-81
2023/06/01 11:29:06;;;;;;;2.77;2.57;;;26.10;41.40;;;;;;5009720;28;20480;-80
2023/06/01 11:31:38;;;;;;;5.10;2.33;;;26.10;41.30;;;;;;5005790;28;20452;-82
2023/06/01 11:34:07;;;;;;;2.47;2.27;;;26.10;41.40;;;;;;5001445;28;20482;-80
2023/06/01 11:36:40;;;;;;;1.87;1.77;;;26.20;41.40;;;;;;5007366;28;20439;-80
2023/06/01 11:39:21;;;;;;;2.30;2.00;;;26.20;41.30;;;;;;5005042;28;20488;-80
2023/06/01 11:41:58;;;;;;;2.13;2.03;;;26.30;41.20;;;;;;5001140;28;20448;-79
2023/06/01 11:44:26;;;;;;;3.10;2.80;;;26.40;41.10;;;;;;5006594;28;20473;-80
2023/06/01 11:46:55;;;;;;;2.43;2.23;;;26.40;41.00;;;;;;5004235;28;20428;-80
2023/06/01 11:49:24;;;;;;;2.50;2.30;;;26.40;41.00;;;;;;5000378;28;20428;-81
2023/06/01 11:51:52;;;;;;;3.27;2.60;;;26.40;41.00;;;;;;5006019;28;20504;-80
2023/06/01 11:54:27;;;;;;;2.87;2.67;;;26.30;41.20;;;;;;5006132;28;20563;-80
2023/06/01 11:56:57;;;;;;;4.13;2.57;;;26.30;41.10;;;;;;5003596;28;20466;-80
2023/06/01 11:59:28;;;;;;;2.37;2.17;;;26.40;41.10;;;;;;5002592;28;20427;-80
2023/06/01 12:01:56;;;;;;;2.70;2.50;;;26.50;41.00;;;;;;5007321;28;20403;-80
2023/06/01 12:04:25;;;;;;;2.93;2.77;;;26.50;41.50;;;;;;5005369;28;20464;-80
2023/06/01 12:07:03;;;;;;;4.73;2.93;;;26.60;41.00;;;;;;5006142;28;20416;-80
2023/06/01 12:09:31;;;;;;;2.53;2.33;;;26.60;41.00;;;;;;5006962;28;20411;-81
2023/06/01 12:12:00;;;;;;;2.90;1.97;;;26.70;40.90;;;;;;5002499;28;20472;-80
2023/06/01 12:14:29;;;;;;;2.77;2.67;;;26.60;40.60;;;;;;4995897;28;20526;-80
2023/06/01 12:16:58;;;;;;;2.73;2.53;;;26.60;40.70;;;;;;5001704;28;20453;-80
2023/06/01 12:19:28;;;;;;;2.20;2.10;;;26.60;40.80;;;;;;5006146;28;20437;-81
2023/06/01 12:21:57;;;;;;;2.50;2.40;;;26.60;40.90;;;;;;5002992;28;20446;-79
2023/06/01 12:24:29;;;;;;;2.77;2.57;;;26.60;40.90;;;;;;5003543;28;20429;-78
2023/06/01 12:26:58;;;;;;;2.60;2.40;;;26.70;40.80;;;;;;4996171;28;20467;-79
2023/06/01 12:29:41;;;;;;;2.10;2.00;;;26.70;40.80;;;;;;4999597;28;20452;-78
2023/06/01 12:32:10;;;;;;;2.20;2.10;;;26.60;40.80;;;;;;5003700;28;20441;-79
2023/06/01 12:34:39;;;;;;;2.50;2.30;;;26.60;40.80;;;;;;5003598;28;20572;-79
2023/06/01 12:37:14;;;;;;;2.40;2.30;;;26.60;40.90;;;;;;5007034;28;20475;-79
2023/06/01 12:39:42;;;;;;;2.40;2.20;;;26.60;40.80;;;;;;5006458;28;20423;-79
2023/06/01 12:42:11;;;;;;;2.20;2.10;;;26.50;40.90;;;;;;5004723;28;20416;-79
2023/06/01 12:44:41;;;;;;;5.10;2.87;;;26.50;41.00;;;;;;5005493;28;20449;-80
2023/06/01 12:47:10;;;;;;;2.40;2.20;;;26.50;41.00;;;;;;5001358;28;20828;-81
2023/06/01 12:49:39;;;;;;;2.90;2.47;;;26.50;41.00;;;;;;5007573;28;20428;-80
2023/06/01 12:52:08;;;;;;;2.60;2.17;;;26.50;40.90;;;;;;5006162;28;20424;-81
2023/06/01 12:54:37;;;;;;;2.80;2.60;;;26.50;40.90;;;;;;5005878;28;20469;-82
2023/06/01 12:57:13;;;;;;;2.73;2.43;;;26.50;40.90;;;;;;5004158;28;20457;-79
2023/06/01 12:59:43;;;;;;;2.83;2.50;;;26.50;41.00;;;;;;5001288;28;20418;-79
2023/06/01 13:02:13;;;;;;;2.27;2.17;;;26.50;41.10;;;;;;5004208;28;20488;-79